createdAt,value
2023-02-03T00:01:03.727Z,2.2
2023-02-03T00:04:05.675Z,1.8
2023-02-03T00:07:07.622Z,1.8
2023-02-03T00:10:09.578Z,2.4
2023-02-03T00:13:11.540Z,1.8
2023-02-03T00:16:13.570Z,1.6
2023-02-03T00:19:17.370Z,2.1
2023-02-03T00:22:17.413Z,1.9
2023-02-03T00:25:19.387Z,1.7
2023-02-03T00:28:21.346Z,2.1
2023-02-03T00:31:23.395Z,2.3
2023-02-03T00:34:25.277Z,1.8
2023-02-03T00:37:27.249Z,2
2023-02-03T00:40:29.191Z,2.1
2023-02-03T00:43:31.153Z,2.3
2023-02-03T00:46:33.129Z,1.6
2023-02-03T00:49:35.115Z,1.7
2023-02-03T00:52:37.087Z,1.5
2023-02-03T00:55:39.209Z,2
2023-02-03T00:58:40.981Z,1.5
2023-02-03T01:01:42.931Z,1.7
2023-02-03T01:04:44.914Z,1.7
2023-02-03T01:07:46.862Z,1.9
2023-02-03T01:10:48.822Z,1.6
2023-02-03T01:13:50.794Z,1.8
2023-02-03T01:16:52.790Z,1.9
2023-02-03T01:19:54.705Z,1.5
2023-02-03T01:22:56.670Z,1.7
2023-02-03T01:25:58.633Z,1.8
2023-02-03T01:29:00.623Z,2.5
2023-02-03T01:32:02.574Z,2.3
2023-02-03T01:35:04.531Z,1.8
2023-02-03T01:38:06.468Z,2.2
2023-02-03T01:41:08.466Z,1.8
2023-02-03T01:44:10.421Z,1.4
2023-02-03T01:47:12.382Z,1.4
2023-02-03T01:50:14.333Z,1.5
2023-02-03T01:53:16.312Z,1.7
2023-02-03T01:56:18.258Z,1.4
2023-02-03T01:59:20.219Z,1.4
2023-02-03T02:02:22.233Z,1.5
2023-02-03T02:05:24.144Z,1.5
2023-02-03T02:08:26.115Z,1.3
2023-02-03T02:11:28.077Z,1.2
2023-02-03T02:14:30.030Z,1.3
2023-02-03T02:17:31.994Z,1.2
2023-02-03T02:20:33.989Z,1.4
2023-02-03T02:23:35.916Z,1
2023-02-03T02:26:37.868Z,1.2
2023-02-03T02:29:39.844Z,1.2
2023-02-03T02:32:41.805Z,1.1
2023-02-03T02:35:43.784Z,1.4
2023-02-03T02:38:45.703Z,0.9
2023-02-03T02:41:47.681Z,1.2
2023-02-03T02:44:49.642Z,1.1
2023-02-03T02:47:51.598Z,1.2
2023-02-03T02:50:53.569Z,1.2
2023-02-03T02:53:55.541Z,1.2
2023-02-03T02:56:57.480Z,0.9
2023-02-03T02:59:59.455Z,1.3
2023-02-03T03:03:01.427Z,0.9
2023-02-03T03:06:03.390Z,1
2023-02-03T03:09:05.355Z,1
2023-02-03T03:12:07.321Z,0.9
2023-02-03T03:15:09.268Z,1.1
2023-02-03T03:18:11.230Z,1.2
2023-02-03T03:21:13.215Z,0.9
2023-02-03T03:24:15.170Z,0.7
2023-02-03T03:27:17.117Z,0.7
2023-02-03T03:30:19.073Z,1
2023-02-03T03:33:21.034Z,1
2023-02-03T03:36:23.006Z,0.9
2023-02-03T03:39:24.949Z,1.1
2023-02-03T03:42:26.909Z,1.1
2023-02-03T03:45:28.867Z,0.9
2023-02-03T03:48:30.820Z,0.9
2023-02-03T03:51:32.816Z,0.8
2023-02-03T03:54:34.737Z,1.1
2023-02-03T03:57:36.714Z,1.2
2023-02-03T04:00:38.661Z,0.9
2023-02-03T04:03:40.638Z,0.8
2023-02-03T04:06:42.594Z,1
2023-02-03T04:09:44.554Z,0.9
2023-02-03T04:12:46.521Z,0.9
2023-02-03T04:15:48.568Z,1
2023-02-03T04:18:50.433Z,0.9
2023-02-03T04:21:52.386Z,1
2023-02-03T04:24:54.358Z,0.8
2023-02-03T04:27:56.409Z,0.7
2023-02-03T04:30:58.349Z,0.9
2023-02-03T04:34:00.278Z,1
2023-02-03T04:37:02.226Z,1.1
2023-02-03T04:40:04.174Z,0.9
2023-02-03T04:43:06.164Z,0.8
2023-02-03T04:46:08.141Z,1
2023-02-03T04:49:10.069Z,1.1
2023-02-03T04:52:12.009Z,1.2
2023-02-03T04:55:14.004Z,0.9
2023-02-03T04:58:16.133Z,1.3
2023-02-03T05:01:17.964Z,1.2
2023-02-03T05:04:19.848Z,1.2
2023-02-03T05:07:21.821Z,1.1
2023-02-03T05:10:23.783Z,1.3
2023-02-03T05:13:25.828Z,1.2
2023-02-03T05:16:27.753Z,1.3
2023-02-03T05:19:29.883Z,1.2
2023-02-03T05:22:31.698Z,1.1
2023-02-03T05:25:33.616Z,1.1
2023-02-03T05:28:35.554Z,1.3
2023-02-03T05:31:37.558Z,1.2
2023-02-03T05:34:41.359Z,1.2
2023-02-03T05:37:41.440Z,0.9
2023-02-03T05:40:43.357Z,1.3
2023-02-03T05:43:45.327Z,1.1
2023-02-03T05:46:47.302Z,1.1
2023-02-03T05:49:49.278Z,1.2
2023-02-03T05:52:51.215Z,1
2023-02-03T05:55:53.177Z,1.5
2023-02-03T05:58:55.120Z,1.3
2023-02-03T06:01:57.078Z,1.3
2023-02-03T06:04:59.051Z,1.2
2023-02-03T06:08:01.005Z,1.3
2023-02-03T06:11:02.979Z,1.1
2023-02-03T06:14:04.914Z,1.2
2023-02-03T06:17:06.895Z,1.2
2023-02-03T06:20:08.841Z,1
2023-02-03T06:23:10.810Z,1.3
2023-02-03T06:26:12.788Z,1.2
2023-02-03T06:29:14.742Z,1.2
2023-02-03T06:32:16.663Z,1.1
2023-02-03T06:35:18.631Z,1.5
2023-02-03T06:38:20.578Z,1.4
2023-02-03T06:41:22.555Z,1.2
2023-02-03T06:44:24.496Z,1.1
2023-02-03T06:47:26.474Z,1.3
2023-02-03T06:50:28.803Z,1.2
2023-02-03T06:53:30.405Z,1.2
2023-02-03T06:56:32.374Z,1.3
2023-02-03T06:59:34.333Z,1.4
2023-02-03T07:02:36.310Z,1.3
2023-02-03T07:05:38.257Z,1.2
2023-02-03T07:08:40.208Z,1.6
2023-02-03T07:11:42.177Z,1.6
2023-02-03T07:14:44.124Z,1.3
2023-02-03T07:17:46.101Z,1.4
2023-02-03T07:20:48.033Z,1.3
2023-02-03T07:23:50.004Z,1.6
2023-02-03T07:26:51.951Z,1.6
2023-02-03T07:29:53.925Z,2
2023-02-03T07:32:55.883Z,1.1
2023-02-03T07:35:57.821Z,1.5
2023-02-03T07:38:59.797Z,1.3
2023-02-03T07:42:01.744Z,1.2
2023-02-03T07:45:03.705Z,1.2
2023-02-03T07:48:05.656Z,1.7
2023-02-03T07:51:07.623Z,1.6
2023-02-03T07:54:09.577Z,1.3
2023-02-03T07:57:11.550Z,1.3
2023-02-03T08:00:13.529Z,1.2
2023-02-03T08:03:15.481Z,1
2023-02-03T08:06:17.416Z,0.9
2023-02-03T08:09:19.377Z,1
2023-02-03T08:12:21.367Z,1.3
2023-02-03T08:15:23.345Z,1.2
2023-02-03T08:18:25.291Z,1.1
2023-02-03T08:21:27.224Z,0.9
2023-02-03T08:24:29.181Z,1.4
2023-02-03T08:27:31.151Z,1.3
2023-02-03T08:30:33.152Z,1.1
2023-02-03T08:33:35.113Z,0.9
2023-02-03T08:36:37.102Z,0.9
2023-02-03T08:39:39.044Z,0.9
2023-02-03T08:42:40.985Z,1.2
2023-02-03T08:45:42.997Z,1.1
2023-02-03T08:48:44.914Z,0.9
2023-02-03T08:51:46.865Z,1.6
2023-02-03T08:54:48.860Z,1
2023-02-03T08:57:50.799Z,1.3
2023-02-03T09:00:52.780Z,1
2023-02-03T09:03:54.715Z,1
2023-02-03T09:06:56.663Z,1.2
2023-02-03T09:09:58.635Z,0.9
2023-02-03T09:13:00.652Z,1.1
2023-02-03T09:16:02.567Z,0.9
2023-02-03T09:19:04.496Z,1.2
2023-02-03T09:22:06.475Z,0.9
2023-02-03T09:25:08.424Z,0.8
2023-02-03T09:28:10.410Z,0.8
2023-02-03T09:31:12.358Z,1.1
2023-02-03T09:34:14.353Z,0.9
2023-02-03T09:37:16.307Z,0.8
2023-02-03T09:40:18.235Z,1.2
2023-02-03T09:43:20.236Z,0.7
2023-02-03T09:46:22.219Z,0.7
2023-02-03T09:49:24.141Z,0.9
2023-02-03T09:52:26.106Z,0.9
2023-02-03T09:55:28.078Z,1
2023-02-03T09:58:30.102Z,0.9
2023-02-03T10:01:32.024Z,0.8
2023-02-03T10:04:33.980Z,0.9
2023-02-03T10:07:35.937Z,1
2023-02-03T10:10:37.875Z,0.9
2023-02-03T10:13:39.834Z,0.8
2023-02-03T10:16:41.820Z,0.9
2023-02-03T10:19:43.770Z,0.7
2023-02-03T10:22:45.724Z,1.1
2023-02-03T10:25:47.673Z,0.9
2023-02-03T10:28:49.634Z,1
2023-02-03T10:31:51.749Z,0.9
2023-02-03T10:34:53.586Z,1
2023-02-03T10:37:55.543Z,0.8
2023-02-03T10:40:57.545Z,0.9
2023-02-03T10:43:59.455Z,1
2023-02-03T10:47:01.410Z,1
2023-02-03T10:50:03.386Z,1.2
2023-02-03T10:53:05.317Z,2
2023-02-03T10:56:07.281Z,1.3
2023-02-03T10:59:09.265Z,1.2
2023-02-03T11:02:11.251Z,1
2023-02-03T11:05:13.164Z,0.8
2023-02-03T11:08:15.142Z,1
2023-02-03T11:11:17.110Z,0.8
2023-02-03T11:14:19.082Z,0.9
2023-02-03T11:17:21.024Z,0.9
2023-02-03T11:20:22.975Z,0.8
2023-02-03T11:23:24.933Z,1
2023-02-03T11:26:26.904Z,0.6
2023-02-03T11:29:28.846Z,0.8
2023-02-03T11:32:30.804Z,0.9
2023-02-03T11:35:32.745Z,0.7
2023-02-03T11:38:34.740Z,0.8
2023-02-03T11:41:36.689Z,1.1
2023-02-03T11:44:38.649Z,0.8
2023-02-03T11:47:40.619Z,0.6
2023-02-03T11:50:42.574Z,0.8
2023-02-03T11:53:56.113Z,0.8
2023-02-03T11:56:46.490Z,0.8
2023-02-03T11:59:48.453Z,0.8
2023-02-03T12:02:50.484Z,0.8
2023-02-03T12:05:52.383Z,0.7
2023-02-03T12:08:54.361Z,0.8
2023-02-03T12:11:56.336Z,1
2023-02-03T12:14:58.272Z,0.7
2023-02-03T12:18:00.244Z,0.7
2023-02-03T12:21:02.189Z,0.7
2023-02-03T12:24:04.167Z,0.6
2023-02-03T12:27:06.114Z,0.7
2023-02-03T12:30:08.066Z,0.8
2023-02-03T12:33:10.031Z,0.6
2023-02-03T12:36:11.994Z,0.7
2023-02-03T12:39:13.963Z,1.1
2023-02-03T12:42:15.936Z,0.8
2023-02-03T12:45:17.882Z,0.7
2023-02-03T12:48:20.092Z,0.9
2023-02-03T12:51:21.815Z,1.1
2023-02-03T12:54:23.773Z,0.7
2023-02-03T12:57:25.762Z,0.8
2023-02-03T13:00:28.019Z,1
2023-02-03T13:03:29.685Z,0.7
2023-02-03T13:06:31.667Z,0.8
2023-02-03T13:09:33.599Z,0.9
2023-02-03T13:12:35.715Z,0.8
2023-02-03T13:15:37.547Z,0.9
2023-02-03T13:18:39.484Z,1
2023-02-03T13:21:41.471Z,0.8
2023-02-03T13:24:43.406Z,0.7
2023-02-03T13:27:45.397Z,0.7
2023-02-03T13:30:47.416Z,1.2
2023-02-03T13:33:49.349Z,0.8
2023-02-03T13:36:51.319Z,0.7
2023-02-03T13:39:53.265Z,0.8
2023-02-03T13:42:55.261Z,0.8
2023-02-03T13:45:57.265Z,0.9
2023-02-03T13:48:59.189Z,0.7
2023-02-03T13:52:01.131Z,0.8
2023-02-03T13:55:03.082Z,0.8
2023-02-03T13:58:05.055Z,0.8
2023-02-03T14:01:07.041Z,0.8
2023-02-03T14:04:09.182Z,0.9
2023-02-03T14:07:10.960Z,0.9
2023-02-03T14:10:12.927Z,0.8
2023-02-03T14:13:14.886Z,0.6
2023-02-03T14:16:16.883Z,0.8
2023-02-03T14:19:18.818Z,1
2023-02-03T14:22:20.849Z,1.1
2023-02-03T14:25:22.746Z,0.8
2023-02-03T14:28:24.728Z,0.7
2023-02-03T14:31:26.781Z,1
2023-02-03T14:34:28.630Z,0.7
2023-02-03T14:37:30.608Z,0.9
2023-02-03T14:40:32.544Z,0.9
2023-02-03T14:43:34.547Z,0.7
2023-02-03T14:46:36.581Z,0.7
2023-02-03T14:49:38.419Z,0.8
2023-02-03T14:52:40.378Z,0.8
2023-02-03T14:55:42.327Z,0.9
2023-02-03T14:58:44.304Z,0.8
2023-02-03T15:01:46.329Z,0.8
2023-02-03T15:04:48.248Z,1
2023-02-03T15:07:50.161Z,0.7
2023-02-03T15:10:52.127Z,0.8
2023-02-03T15:13:54.113Z,1.1
2023-02-03T15:16:56.039Z,0.9
2023-02-03T15:19:57.971Z,0.8
2023-02-03T15:22:59.939Z,0.8
2023-02-03T15:26:01.919Z,0.9
2023-02-03T15:29:03.873Z,1.5
2023-02-03T15:32:05.906Z,1.1
2023-02-03T15:35:07.790Z,1.2
2023-02-03T15:38:09.755Z,0.8
2023-02-03T15:41:11.707Z,1
2023-02-03T15:44:13.665Z,0.9
2023-02-03T15:47:15.615Z,0.9
2023-02-03T15:50:17.576Z,0.9
2023-02-03T15:53:19.554Z,0.8
2023-02-03T15:56:21.483Z,1
2023-02-03T15:59:23.466Z,1
2023-02-03T16:02:25.450Z,0.7
2023-02-03T16:05:27.700Z,1.2
2023-02-03T16:08:29.393Z,1.3
2023-02-03T16:11:31.322Z,1
2023-02-03T16:14:33.277Z,1
2023-02-03T16:17:35.241Z,1.1
2023-02-03T16:20:37.211Z,1.1
2023-02-03T16:23:39.170Z,1
2023-02-03T16:26:41.159Z,1.3
2023-02-03T16:29:43.108Z,1.3
2023-02-03T16:32:45.058Z,1.5
2023-02-03T16:35:47.032Z,1.3
2023-02-03T16:38:48.987Z,1.2
2023-02-03T16:41:50.951Z,1.5
2023-02-03T16:44:52.923Z,1.2
2023-02-03T16:47:54.879Z,1.5
2023-02-03T16:50:59.248Z,1.1
2023-02-03T16:53:58.811Z,1.5
2023-02-03T16:57:00.767Z,1.5
2023-02-03T17:00:02.734Z,1.6
2023-02-03T17:03:04.677Z,1.8
2023-02-03T17:06:06.627Z,1.5
2023-02-03T17:09:08.596Z,1.9
2023-02-03T17:12:10.553Z,1.7
2023-02-03T17:15:12.548Z,1.5
2023-02-03T17:18:14.471Z,1.6
2023-02-03T17:21:16.440Z,1.9
2023-02-03T17:24:18.382Z,2.2
2023-02-03T17:27:20.355Z,2.1
2023-02-03T17:30:22.569Z,2.3
2023-02-03T17:33:24.291Z,1.9
2023-02-03T17:36:26.244Z,2.5
2023-02-03T17:54:37.992Z,3.3
2023-02-03T17:57:39.968Z,3.3
2023-02-03T18:00:41.904Z,6.2
2023-02-03T18:03:43.871Z,5.1
2023-02-03T18:06:45.840Z,6.2
2023-02-03T18:09:47.782Z,11.1
2023-02-03T18:12:49.747Z,8.3
2023-02-03T18:15:51.696Z,7.2
2023-02-03T18:18:53.673Z,5.1
2023-02-03T18:21:55.688Z,5.3
2023-02-03T18:24:57.684Z,4
2023-02-03T18:27:59.647Z,4.9
2023-02-03T18:31:01.682Z,4.5
2023-02-03T18:34:03.526Z,4.4
2023-02-03T18:37:05.496Z,4.8
2023-02-03T18:40:07.431Z,4.3
2023-02-03T18:43:09.404Z,4.8
2023-02-03T18:46:11.393Z,4.3
2023-02-03T18:49:13.348Z,3.6
2023-02-03T18:52:15.314Z,3
2023-02-03T18:55:17.337Z,3.8
2023-02-03T18:58:19.280Z,3.8
2023-02-03T19:01:21.247Z,5.5
2023-02-03T19:04:23.206Z,3.1
2023-02-03T19:07:25.160Z,5
2023-02-03T19:10:27.305Z,3.8
2023-02-03T19:13:29.093Z,3.7
2023-02-03T19:16:31.043Z,2.8
2023-02-03T19:19:33.030Z,3.7
2023-02-03T19:22:34.969Z,3.7
2023-02-03T19:25:36.923Z,3.6
2023-02-03T19:28:38.973Z,3.7
2023-02-03T19:31:41.004Z,3.8
2023-02-03T19:34:42.820Z,3.1
2023-02-03T19:37:44.780Z,3.6
2023-02-03T19:40:46.749Z,3.8
2023-02-03T19:43:48.697Z,3.6
2023-02-03T19:46:50.689Z,4
2023-02-03T19:49:52.678Z,4
2023-02-03T19:52:54.637Z,3.4
2023-02-03T19:55:56.644Z,4.8
2023-02-03T19:58:58.610Z,3.9
2023-02-03T20:02:09.493Z,3.5
2023-02-03T20:05:02.636Z,3.9
2023-02-03T20:08:04.671Z,3.6
2023-02-03T20:11:06.654Z,4
2023-02-03T20:14:08.598Z,3.7
2023-02-03T20:17:10.542Z,3.2
2023-02-03T20:20:12.520Z,3.2
2023-02-03T20:23:14.467Z,3.8
2023-02-03T20:26:16.446Z,3.1
2023-02-03T20:29:18.394Z,3.5
2023-02-03T20:32:20.342Z,3.9
2023-02-03T20:35:22.304Z,3.8
2023-02-03T20:38:24.248Z,3.8
2023-02-03T20:41:26.201Z,4.1
2023-02-03T20:44:28.180Z,4.4
2023-02-03T20:47:30.128Z,4
2023-02-03T20:50:41.883Z,4.1
2023-02-03T20:53:34.034Z,5
2023-02-03T20:56:36.015Z,4.2
2023-02-03T20:59:37.963Z,3.8
2023-02-03T21:02:39.925Z,4.9
2023-02-03T21:05:41.896Z,4.5
2023-02-03T21:08:43.845Z,4.5
2023-02-03T21:11:45.795Z,4.3
2023-02-03T21:14:47.767Z,3.8
2023-02-03T21:17:49.722Z,3.7
2023-02-03T21:20:51.681Z,3.8
2023-02-03T21:23:53.643Z,4.3
2023-02-03T21:26:55.606Z,3.8
2023-02-03T21:29:57.585Z,4.3
2023-02-03T21:32:59.504Z,4.5
2023-02-03T21:36:01.456Z,3.7
2023-02-03T21:39:03.416Z,4
2023-02-03T21:42:05.381Z,3.6
2023-02-03T21:45:07.353Z,5.7
2023-02-03T21:48:09.288Z,3.6
2023-02-03T21:51:11.245Z,3.6
2023-02-03T21:54:13.200Z,3.8
2023-02-03T21:57:15.153Z,4
2023-02-03T22:00:17.142Z,3.2
2023-02-03T22:03:19.112Z,3.2
2023-02-03T22:06:21.059Z,3.6
2023-02-03T22:09:23.044Z,3.6
2023-02-03T22:12:24.980Z,3.6
2023-02-03T22:15:26.933Z,4.5
2023-02-03T22:18:28.884Z,3.4
2023-02-03T22:21:30.979Z,4
2023-02-03T22:24:32.808Z,3.8
2023-02-03T22:27:34.767Z,3.6
2023-02-03T22:30:36.848Z,3.7
2023-02-03T22:33:38.688Z,3.4
2023-02-03T22:36:40.634Z,3.4
2023-02-03T22:39:42.640Z,2.4
2023-02-03T22:42:44.609Z,2.9
2023-02-03T22:45:46.606Z,3
2023-02-03T22:48:48.517Z,2.3
2023-02-03T22:51:50.497Z,3.4
2023-02-03T22:54:52.431Z,3.2
2023-02-03T22:57:54.391Z,2.8
2023-02-03T23:00:56.364Z,4
2023-02-03T23:03:58.339Z,3.1
2023-02-03T23:07:00.289Z,2.7
2023-02-03T23:10:02.242Z,3.3
2023-02-03T23:13:04.188Z,3
2023-02-03T23:16:06.205Z,3
2023-02-03T23:19:08.132Z,3.2
2023-02-03T23:22:10.102Z,2.2
2023-02-03T23:25:12.084Z,3.1
2023-02-03T23:28:14.046Z,2.6
2023-02-03T23:31:16.032Z,3.5
2023-02-03T23:34:17.928Z,3
2023-02-03T23:37:19.874Z,2.6
2023-02-03T23:40:21.834Z,3
2023-02-03T23:43:23.813Z,2.7
2023-02-03T23:46:25.791Z,3.1
2023-02-03T23:49:27.713Z,2.4
2023-02-03T23:52:29.667Z,2.7
2023-02-03T23:55:31.622Z,2.7
2023-02-03T23:58:33.584Z,3.5
